To NAV CANADA Home Page Login to a new session Search on AWWS site Disclaimer Vers la page française équivalente Tips FAQ What's new on the site To the Forecasts and Observations / NOTAM section To "File a Flight Plan" website Publications and other links Update of the User's profile FIC Telephone Numbers My Weather Data Folder Route Weather Data Regional Weather Data Local Weather Data To the Forecasts and Observations / NOTAM section
Request Generated 11/13/2018 at 19:05:57 UTC . Weather information available at that time is displayed.

METAR/TAF

KANGIRSUK/QC    

METAR CYAS 131900Z 03011KT 3SM -SN BKN014 OVC030 M08/M09 A2993 RMK SN2ST3SC3 SLP149=
SPECI CYAS 131854Z 03012KT 3SM -SN BKN014 OVC035 M08/M10 A2993 RMK SN3ST3SC2 SLP150=
SPECI CYAS 131846Z 03012KT 5/8SM -SN OVC023 M08/M10 A2993 RMK SN4SC4 SLP151=
METAR CYAS 131800Z 02009KT 6SM -SN OVC041 M09/M10 A2995 RMK SC8 SLP156=
METAR CYAS 131700Z 03009KT 3SM -SN OVC039 M08/M10 A2997 RMK SC8 SLP162=

TAF AMD CYAS 131521Z 1315/1322 VRB03KT P6SM -SN OVC030 TEMPO
1315/1318 2SM -SN OVC020
FM131800 05012G22KT 3SM -SN OVC030 TEMPO 1318/1322 11/2SM -SN
VV015
RMK NXT FCST WILL BE ISSUED AT 141445Z=
Your time UTC time
Weather data provided by Environment Canada and NAV CANADA